Time;durP1;ratioP1;P1;durP2;ratioP2;P2;SDS_P1;SDS_P2;PMS_P1;PMS_P2;Temp;Humidity;BMP_temperature;BMP_pressure;BME280_temperature;BME280_humidity;BME280_pressure;Samples;Min_cycle;Max_cycle;Signal;HPM_P1;HPM_P2
2022/02/18 00:31:06;;;;;;;;;;;;;;;;;;;;;
2022/02/18 01:03:09;;;;;;;;;;;;;;;;;;;;;
2022/02/18 01:21:50;;;;;;;;;;;;;;;;;;;;;
2022/02/18 02:20:16;;;;;;;;;;;;;;;;;;;;;
2022/02/18 02:27:16;;;;;;;;;;;6.90;1.00;;;;;;5900486;24;19947;-87
2022/02/18 02:38:51;;;;;;;;;;;;;;;;;;;;;
2022/02/18 02:42:13;;;;;;;;;;;;;;;;;;;;;
2022/02/18 02:45:24;;;;;;;;;;;6.90;1.00;;;;;;5886218;24;20290;-90
2022/02/18 02:48:25;;;;;;;;;;;6.80;99.90;;;;;;5892611;24;19922;-88
2022/02/18 02:55:46;;;;;;;;;;;6.90;99.90;;;;;;5889092;24;19920;-90
2022/02/18 02:59:00;;;;;;;;;;;6.90;99.90;;;;;;5860910;24;20015;-90
2022/02/18 03:02:13;;;;;;;;;;;;;;;;;;;;;
2022/02/18 03:13:18;;;;;;;;;;;7.10;99.90;;;;;;6011499;23;19927;-91
2022/02/18 03:16:54;;;;;;;;;;;7.10;99.90;;;;;;6017647;23;19922;-91
2022/02/18 03:20:29;;;;;;;;;;;;;;;;;;;;;
2022/02/18 03:23:39;;;;;;;;;;;7.10;99.90;;;;;;6009942;23;19937;-92
2022/02/18 03:27:07;;;;;;;;;;;7.10;1.00;;;;;;6011172;23;19926;-90
2022/02/18 03:38:14;;;;;;;;;;;7.10;99.90;;;;;;5869263;24;19911;-91
2022/02/18 03:41:51;;;;;;;;;;;;;;;;;;;;;
2022/02/18 06:38:40;;;;;;;;;;;7.50;99.90;;;;;;6255606;22;19926;-91
2022/02/18 06:49:44;;;;;;;;;;;7.50;99.90;;;;;;6102026;23;19961;-91
2022/02/18 06:52:58;;;;;;;;;;;;;;;;;;;;;
2022/02/18 06:56:30;;;;;;;;;;;7.50;99.90;;;;;;6076385;23;19949;-91
2022/02/18 06:59:54;;;;;;;;;;;7.50;99.90;;;;;;6102445;23;20000;-91
2022/02/18 07:07:05;;;;;;;;;;;;;;;;;;;;;
2022/02/18 07:25:40;;;;;;;;;;;;;;;;;;;;;
2022/02/18 07:59:58;;;;;;;;;;;;;;;;;;;;;
2022/02/18 08:25:22;;;;;;;;;;;8.90;99.90;;;;;;5926061;24;20180;-89
2022/02/18 08:28:08;;;;;;;;;;;9.10;91.60;;;;;;5909744;24;19998;-89
2022/02/18 08:31:39;;;;;;;;;;;9.30;1.00;;;;;;5958851;24;19919;-92
2022/02/18 08:42:07;;;;;;;;;;;9.60;99.90;;;;;;6189431;23;19960;-89
2022/02/18 08:44:54;;;;;;;;;;;9.70;99.90;;;;;;6229722;22;19985;-89
2022/02/18 08:47:46;;;;;;;;;;;9.90;1.00;;;;;;6244653;23;20354;-87
2022/02/18 08:50:34;;;;;;;;;;;10.00;99.90;;;;;;6240998;23;19939;-88
2022/02/18 08:53:52;;;;;;;;;;;10.10;99.90;;;;;;6243275;23;19923;-90
2022/02/18 08:56:40;;;;;;;;;;;10.30;1.00;;;;;;6243870;23;19919;-87
2022/02/18 09:00:14;;;;;;;;;;;10.60;99.90;;;;;;6244641;23;19939;-91
2022/02/18 09:06:19;;;;;;;;;;;10.80;1.00;;;;;;6246866;22;19998;-90
2022/02/18 09:09:28;;;;;;;;;;;10.80;1.00;;;;;;6247987;22;19931;-92
2022/02/18 09:12:39;;;;;;;;;;;10.90;1.00;;;;;;6237817;22;20019;-89
2022/02/18 09:15:41;;;;;;;;;;;10.90;1.00;;;;;;6244695;23;19920;-91
2022/02/18 09:19:08;;;;;;;;;;;11.00;1.00;;;;;;6252871;22;19927;-91
2022/02/18 09:25:45;;;;;;;;;;;11.50;99.90;;;;;;6220403;22;20348;-88
2022/02/18 09:28:35;;;;;;;;;;;11.90;99.90;;;;;;6245555;23;20306;-90
2022/02/18 09:35:17;;;;;;;;;;;12.60;99.90;;;;;;6247641;22;19923;-93
2022/02/18 09:38:07;;;;;;;;;;;12.90;99.90;;;;;;6242925;23;19927;-89
2022/02/18 09:40:54;;;;;;;;;;;13.00;99.90;;;;;;6245282;23;19924;-90
2022/02/18 09:43:42;;;;;;;;;;;13.50;99.90;;;;;;6243560;23;20195;-88
2022/02/18 09:46:39;;;;;;;;;;;13.80;1.00;;;;;;6246970;23;19919;-87
2022/02/18 09:49:47;;;;;;;;;;;13.80;99.90;;;;;;6249692;23;19919;-90
2022/02/18 09:52:37;;;;;;;;;;;14.40;99.90;;;;;;6247742;23;19920;-88
2022/02/18 09:55:36;;;;;;;;;;;14.40;99.90;;;;;;6244884;23;20410;-89
2022/02/18 09:58:25;;;;;;;;;;;14.50;1.00;;;;;;6245628;23;19919;-90
2022/02/18 10:01:22;;;;;;;;;;;;;;;;;;;;;
2022/02/18 10:04:11;;;;;;;;;;;14.50;99.90;;;;;;6245916;23;19919;-90
2022/02/18 10:07:14;;;;;;;;;;;14.20;99.90;;;;;;6248707;23;20007;-91
2022/02/18 10:14:15;;;;;;;;;;;;;;;;;;;;;
2022/02/18 10:27:54;;;;;;;;;;;15.00;1.00;;;;;;6178631;23;19969;-89
2022/02/18 10:35:08;;;;;;;;;;;16.80;99.90;;;;;;6041664;23;20070;-90
2022/02/18 10:38:53;;;;;;;;;;;17.70;1.00;;;;;;6024936;23;19922;-91
2022/02/18 10:49:14;;;;;;;;;;;16.10;1.00;;;;;;5984821;23;19921;-90
2022/02/18 10:52:25;;;;;;;;;;;16.20;99.90;;;;;;6214480;23;20231;-90
2022/02/18 10:59:50;;;;;;;;;;;15.50;99.90;;;;;;6214350;23;20103;-88
2022/02/18 11:03:18;;;;;;;;;;;15.10;99.90;;;;;;6213604;23;19951;-91
2022/02/18 11:07:31;;;;;;;;;;;15.70;99.90;;;;;;6186407;23;19935;-90
2022/02/18 11:14:31;;;;;;;;;;;15.50;99.90;;;;;;6178959;23;19948;-92
2022/02/18 11:17:35;;;;;;;;;;;15.70;99.90;;;;;;6093466;23;20007;-88
2022/02/18 11:21:14;;;;;;;;;;;;;;;;;;;;;
2022/02/18 11:24:28;;;;;;;;;;;15.80;99.90;;;;;;6099850;23;19922;-90
2022/02/18 11:28:11;;;;;;;;;;;;;;;;;;;;;
2022/02/18 11:31:40;;;;;;;;;;;;;;;;;;;;;
2022/02/18 11:34:51;;;;;;;;;;;15.60;99.90;;;;;;6038427;23;19917;-89
2022/02/18 11:38:01;;;;;;;;;;;15.00;99.90;;;;;;6180054;23;19920;-89
2022/02/18 11:40:52;;;;;;;;;;;14.70;99.90;;;;;;6191565;23;19920;-90
2022/02/18 11:43:46;;;;;;;;;;;14.60;99.90;;;;;;6165243;23;20075;-90
2022/02/18 11:46:37;;;;;;;;;;;14.50;99.90;;;;;;6186314;23;19930;-90
2022/02/18 11:49:34;;;;;;;;;;;14.50;99.90;;;;;;6247249;22;20010;-89
2022/02/18 11:56:24;;;;;;;;;;;;;;;;;;;;;
2022/02/18 11:59:47;;;;;;;;;;;14.70;99.90;;;;;;6246647;23;20112;-90
2022/02/18 12:03:08;;;;;;;;;;;14.60;99.90;;;;;;6248423;22;19920;-92
2022/02/18 12:06:20;;;;;;;;;;;14.80;99.90;;;;;;6247271;23;20179;-91
2022/02/18 12:10:15;;;;;;;;;;;;;;;;;;;;;
2022/02/18 12:16:53;;;;;;;;;;;14.60;99.90;;;;;;6147638;23;19920;-90
2022/02/18 12:19:55;;;;;;;;;;;;;;;;;;;;;
2022/02/18 12:22:48;;;;;;;;;;;14.60;99.90;;;;;;6153073;23;19932;-91
2022/02/18 12:25:38;;;;;;;;;;;14.60;99.90;;;;;;6153348;23;19924;-89
2022/02/18 12:28:47;;;;;;;;;;;14.60;99.90;;;;;;6245983;23;19981;-90
2022/02/18 12:35:34;;;;;;;;;;;14.60;99.90;;;;;;6245339;23;19923;-92
2022/02/18 12:39:04;;;;;;;;;;;14.80;99.90;;;;;;6247407;23;19924;-90
2022/02/18 12:42:11;;;;;;;;;;;14.80;99.90;;;;;;6243963;22;19955;-89
2022/02/18 12:45:57;;;;;;;;;;;14.70;99.90;;;;;;6253845;23;20206;-90
2022/02/18 12:49:18;;;;;;;;;;;14.70;99.90;;;;;;6006488;23;19926;-92
2022/02/18 12:53:10;;;;;;;;;;;;;;;;;;;;;
2022/02/18 12:56:17;;;;;;;;;;;14.70;90.20;;;;;;6170028;23;19951;-86
2022/02/18 12:59:06;;;;;;;;;;;14.70;84.90;;;;;;6225635;23;19920;-85
2022/02/18 13:01:56;;;;;;;;;;;14.70;1.00;;;;;;6205587;23;19952;-86
2022/02/18 13:05:11;;;;;;;;;;;14.70;1.00;;;;;;6206055;23;19924;-86
2022/02/18 13:08:06;;;;;;;;;;;14.60;1.00;;;;;;6179795;23;19924;-88
2022/02/18 13:10:54;;;;;;;;;;;14.60;1.00;;;;;;6201005;23;19926;-89
2022/02/18 13:13:46;;;;;;;;;;;14.60;1.00;;;;;;6196184;23;20280;-89
2022/02/18 13:16:34;;;;;;;;;;;14.50;1.00;;;;;;6189217;23;19920;-89
2022/02/18 13:19:21;;;;;;;;;;;14.50;99.90;;;;;;6182825;23;20039;-88
2022/02/18 13:22:15;;;;;;;;;;;14.30;99.90;;;;;;6184241;23;19924;-84
2022/02/18 13:25:20;;;;;;;;;;;14.30;99.90;;;;;;6184405;23;20302;-88
2022/02/18 13:28:09;;;;;;;;;;;14.30;99.90;;;;;;6203779;23;19921;-88
2022/02/18 13:30:57;;;;;;;;;;;14.30;99.90;;;;;;6190888;23;19924;-85
2022/02/18 13:33:49;;;;;;;;;;;14.20;99.90;;;;;;6202414;23;20310;-87
2022/02/18 13:36:42;;;;;;;;;;;14.20;99.90;;;;;;6184560;23;20288;-88
2022/02/18 13:39:31;;;;;;;;;;;14.10;99.90;;;;;;6182258;23;19928;-90
2022/02/18 13:42:23;;;;;;;;;;;14.10;99.90;;;;;;6185368;23;19943;-88
2022/02/18 13:45:11;;;;;;;;;;;14.10;99.90;;;;;;6184817;23;19928;-85
2022/02/18 13:48:07;;;;;;;;;;;14.00;99.90;;;;;;6182537;23;19920;-85
2022/02/18 13:50:58;;;;;;;;;;;14.00;99.90;;;;;;6181466;23;19920;-88
2022/02/18 13:53:47;;;;;;;;;;;14.00;99.90;;;;;;6192490;23;19995;-89
2022/02/18 13:56:36;;;;;;;;;;;14.00;99.90;;;;;;6194716;23;19964;-88
2022/02/18 13:59:26;;;;;;;;;;;14.00;99.90;;;;;;6189829;23;20195;-86
2022/02/18 14:02:16;;;;;;;;;;;14.00;99.90;;;;;;6185468;23;19924;-87
2022/02/18 14:05:07;;;;;;;;;;;14.00;99.90;;;;;;6182536;23;19996;-90
2022/02/18 14:08:13;;;;;;;;;;;14.00;99.90;;;;;;6185584;23;19928;-87
2022/02/18 14:11:07;;;;;;;;;;;14.00;1.00;;;;;;6185113;23;19983;-87
2022/02/18 14:14:12;;;;;;;;;;;14.00;1.00;;;;;;6186240;23;19920;-86
2022/02/18 14:17:01;;;;;;;;;;;14.10;1.00;;;;;;6204031;23;19920;-88
2022/02/18 14:19:52;;;;;;;;;;;14.10;99.90;;;;;;6186265;23;19920;-87
2022/02/18 14:22:47;;;;;;;;;;;14.20;1.00;;;;;;6183694;23;19947;-90
2022/02/18 14:25:34;;;;;;;;;;;14.30;1.00;;;;;;6186061;23;19920;-88
2022/02/18 14:28:24;;;;;;;;;;;14.50;1.00;;;;;;6184037;23;19920;-89
2022/02/18 14:31:23;;;;;;;;;;;14.60;1.00;;;;;;6184352;23;19927;-87
2022/02/18 14:34:19;;;;;;;;;;;14.60;1.00;;;;;;6185191;23;19994;-88
2022/02/18 14:37:07;;;;;;;;;;;14.50;1.00;;;;;;6205216;23;20188;-90
2022/02/18 14:39:54;;;;;;;;;;;15.00;1.00;;;;;;6186418;23;19920;-86
2022/02/18 14:42:42;;;;;;;;;;;14.80;99.90;;;;;;6187979;23;20008;-87
2022/02/18 14:45:31;;;;;;;;;;;14.60;99.90;;;;;;6192613;23;20228;-88
2022/02/18 14:48:19;;;;;;;;;;;14.50;1.00;;;;;;6221190;23;19979;-87
2022/02/18 14:51:08;;;;;;;;;;;14.50;1.00;;;;;;6196086;23;19920;-85
2022/02/18 14:54:07;;;;;;;;;;;14.40;1.00;;;;;;6201697;23;19920;-87
2022/02/18 14:56:54;;;;;;;;;;;14.30;1.00;;;;;;6201306;23;19916;-86
2022/02/18 14:59:43;;;;;;;;;;;14.30;1.00;;;;;;6198022;23;19920;-88
2022/02/18 15:02:31;;;;;;;;;;;14.50;99.90;;;;;;6218054;23;19974;-85
2022/02/18 15:05:18;;;;;;;;;;;14.90;1.00;;;;;;6200131;23;20025;-88
2022/02/18 15:08:05;;;;;;;;;;;15.50;99.90;;;;;;6206298;23;19924;-85
2022/02/18 15:10:58;;;;;;;;;;;16.00;1.00;;;;;;6225727;23;19928;-86
2022/02/18 15:13:45;;;;;;;;;;;15.80;1.00;;;;;;6207695;23;19928;-86
2022/02/18 15:16:32;;;;;;;;;;;15.60;1.00;;;;;;6228528;23;19908;-85
2022/02/18 15:19:19;;;;;;;;;;;15.20;1.00;;;;;;6219152;23;19921;-88
2022/02/18 15:22:09;;;;;;;;;;;15.00;1.00;;;;;;6198396;23;19978;-89
2022/02/18 15:24:56;;;;;;;;;;;14.60;1.00;;;;;;6195817;23;19924;-88
2022/02/18 15:27:44;;;;;;;;;;;14.50;1.00;;;;;;6196223;23;19920;-88
2022/02/18 15:36:45;;;;;;;;;;;14.10;99.90;;;;;;6190105;23;19920;-86
2022/02/18 15:42:43;;;;;;;;;;;14.20;99.90;;;;;;6185443;23;20278;-89
2022/02/18 15:45:33;;;;;;;;;;;14.30;96.10;;;;;;6187022;23;19981;-89
2022/02/18 15:48:24;;;;;;;;;;;14.20;73.10;;;;;;6185505;23;20267;-87
2022/02/18 15:51:15;;;;;;;;;;;14.00;99.90;;;;;;6204124;23;19951;-88
2022/02/18 15:54:07;;;;;;;;;;;13.90;99.90;;;;;;6205433;23;19920;-89
2022/02/18 15:56:55;;;;;;;;;;;13.80;55.90;;;;;;6186952;23;19920;-87
2022/02/18 15:59:55;;;;;;;;;;;13.80;91.50;;;;;;6186173;23;19931;-90
2022/02/18 16:02:46;;;;;;;;;;;13.60;60.20;;;;;;6190164;23;19971;-87
2022/02/18 16:05:50;;;;;;;;;;;13.60;99.90;;;;;;6182592;23;20196;-87
2022/02/18 16:08:38;;;;;;;;;;;13.60;7.70;;;;;;6184444;23;19928;-89
2022/02/18 16:11:31;;;;;;;;;;;13.50;6.20;;;;;;6202395;23;19924;-90
2022/02/18 16:14:18;;;;;;;;;;;13.40;9.70;;;;;;6184349;23;19928;-90
2022/02/18 16:17:06;;;;;;;;;;;13.40;58.30;;;;;;6200395;23;19953;-89
2022/02/18 16:19:57;;;;;;;;;;;13.40;11.60;;;;;;6182881;23;19960;-88
2022/02/18 16:22:54;;;;;;;;;;;13.40;1.40;;;;;;6183710;23;19924;-88
2022/02/18 16:25:50;;;;;;;;;;;13.40;55.40;;;;;;6186073;23;20051;-87
2022/02/18 16:28:54;;;;;;;;;;;13.30;1.00;;;;;;6202599;23;19920;-92
2022/02/18 16:31:49;;;;;;;;;;;13.40;1.00;;;;;;6183401;23;20331;-91
2022/02/18 16:34:55;;;;;;;;;;;13.30;1.00;;;;;;6157545;23;19921;-90
2022/02/18 16:38:32;;;;;;;;;;;;;;;;;;;;;
2022/02/18 16:44:42;;;;;;;;;;;13.20;48.50;;;;;;6195165;23;19924;-88
2022/02/18 16:47:40;;;;;;;;;;;13.10;45.30;;;;;;6187127;23;19920;-85
2022/02/18 16:50:28;;;;;;;;;;;13.10;10.80;;;;;;6186165;23;19934;-88
2022/02/18 16:53:17;;;;;;;;;;;13.10;1.00;;;;;;6186905;23;20347;-87
2022/02/18 16:56:08;;;;;;;;;;;13.20;1.00;;;;;;6184948;23;19951;-87
2022/02/18 16:59:02;;;;;;;;;;;13.20;1.00;;;;;;6186463;23;20010;-89
2022/02/18 17:01:50;;;;;;;;;;;13.20;1.00;;;;;;6185399;23;19999;-92
2022/02/18 17:04:42;;;;;;;;;;;13.20;1.00;;;;;;6182971;23;19921;-89
2022/02/18 17:07:42;;;;;;;;;;;13.20;1.00;;;;;;6202999;23;19991;-87
2022/02/18 17:10:39;;;;;;;;;;;13.10;1.00;;;;;;6184840;23;20235;-87
2022/02/18 17:13:30;;;;;;;;;;;13.10;35.00;;;;;;6182865;23;19936;-89
2022/02/18 17:16:21;;;;;;;;;;;13.10;1.00;;;;;;6184969;23;19920;-89
2022/02/18 17:19:12;;;;;;;;;;;13.10;67.50;;;;;;6187946;23;19943;-90
2022/02/18 17:22:13;;;;;;;;;;;13.10;49.30;;;;;;6187138;23;20010;-92
2022/02/18 17:25:23;;;;;;;;;;;13.10;34.70;;;;;;6186164;23;20283;-92
2022/02/18 17:28:16;;;;;;;;;;;13.10;22.40;;;;;;6185798;23;19979;-86
2022/02/18 17:31:07;;;;;;;;;;;13.20;18.80;;;;;;6184856;23;19936;-88
2022/02/18 17:33:57;;;;;;;;;;;13.30;1.00;;;;;;6203556;23;19920;-92
2022/02/18 17:36:45;;;;;;;;;;;13.30;1.00;;;;;;6187622;23;19920;-90
2022/02/18 17:39:41;;;;;;;;;;;13.20;22.30;;;;;;6204107;23;19924;-89
2022/02/18 17:42:28;;;;;;;;;;;13.30;13.10;;;;;;6203420;23;19950;-89
2022/02/18 17:45:17;;;;;;;;;;;13.30;12.20;;;;;;6202221;23;19955;-88
2022/02/18 17:48:27;;;;;;;;;;;13.20;6.60;;;;;;6181403;23;19947;-88
2022/02/18 17:51:14;;;;;;;;;;;13.20;59.90;;;;;;6184566;23;19920;-89
2022/02/18 17:54:02;;;;;;;;;;;13.20;53.50;;;;;;6185138;23;20024;-88
2022/02/18 17:56:51;;;;;;;;;;;13.10;7.30;;;;;;6184735;23;19999;-87
2022/02/18 17:59:41;;;;;;;;;;;13.10;43.50;;;;;;6184746;23;19934;-88
2022/02/18 18:02:50;;;;;;;;;;;13.10;54.10;;;;;;6201941;23;19992;-87
2022/02/18 18:05:43;;;;;;;;;;;13.00;74.60;;;;;;6186808;23;20003;-89
2022/02/18 18:08:33;;;;;;;;;;;13.00;78.50;;;;;;6183531;23;20058;-91
2022/02/18 18:11:37;;;;;;;;;;;12.80;39.30;;;;;;6182386;23;19920;-90
2022/02/18 18:14:55;;;;;;;;;;;11.40;99.90;;;;;;6182864;23;19999;-90
2022/02/18 18:18:01;;;;;;;;;;;9.80;99.90;;;;;;6186493;23;19928;-90
2022/02/18 18:21:30;;;;;;;;;;;;;;;;;;;;;
2022/02/18 18:24:58;;;;;;;;;;;7.60;1.00;;;;;;6189376;23;19947;-93
2022/02/18 18:27:47;;;;;;;;;;;7.20;54.30;;;;;;6187281;23;19931;-90
2022/02/18 18:30:47;;;;;;;;;;;6.90;70.10;;;;;;6184505;23;20002;-88
2022/02/18 18:33:50;;;;;;;;;;;6.70;99.90;;;;;;6126140;23;20036;-90
2022/02/18 18:36:43;;;;;;;;;;;6.50;99.90;;;;;;6126709;23;19921;-92
2022/02/18 18:39:51;;;;;;;;;;;6.40;99.90;;;;;;6124546;23;19931;-91
2022/02/18 18:42:54;;;;;;;;;;;6.30;99.90;;;;;;6110027;23;19984;-91
2022/02/18 18:45:48;;;;;;;;;;;6.20;99.90;;;;;;6134787;23;19921;-86
2022/02/18 18:48:38;;;;;;;;;;;6.10;99.90;;;;;;6131938;23;19916;-90
2022/02/18 18:51:25;;;;;;;;;;;6.10;99.90;;;;;;6129020;23;19932;-91
2022/02/18 18:54:13;;;;;;;;;;;6.00;99.90;;;;;;6127115;23;19991;-92
2022/02/18 18:57:00;;;;;;;;;;;6.00;99.90;;;;;;6124299;23;20039;-90
2022/02/18 18:59:54;;;;;;;;;;;6.00;99.90;;;;;;6125908;23;19931;-92
2022/02/18 19:02:44;;;;;;;;;;;6.00;99.90;;;;;;6123611;23;19925;-87
2022/02/18 19:05:32;;;;;;;;;;;6.00;99.90;;;;;;6186881;23;19920;-89
2022/02/18 19:08:21;;;;;;;;;;;6.00;99.90;;;;;;6184051;23;19924;-91
2022/02/18 19:11:08;;;;;;;;;;;6.00;99.90;;;;;;6182312;23;19920;-87
2022/02/18 19:13:58;;;;;;;;;;;6.00;99.90;;;;;;6183571;23;19928;-89
2022/02/18 19:16:48;;;;;;;;;;;6.10;99.90;;;;;;6182639;23;19920;-90
2022/02/18 19:19:35;;;;;;;;;;;6.10;99.90;;;;;;6185545;23;19946;-91
2022/02/18 19:22:23;;;;;;;;;;;6.10;1.00;;;;;;6185722;23;19921;-90
2022/02/18 19:25:13;;;;;;;;;;;6.20;1.00;;;;;;6203798;23;19924;-86
2022/02/18 19:28:00;;;;;;;;;;;6.20;99.90;;;;;;6185515;23;19924;-86
2022/02/18 19:30:48;;;;;;;;;;;6.10;99.90;;;;;;6185689;23;19999;-90
2022/02/18 19:33:38;;;;;;;;;;;6.10;1.00;;;;;;6187630;23;19992;-88
2022/02/18 19:36:25;;;;;;;;;;;6.10;99.90;;;;;;6188238;23;19931;-88
2022/02/18 19:39:13;;;;;;;;;;;6.00;1.00;;;;;;6184194;23;19999;-89
2022/02/18 19:42:00;;;;;;;;;;;5.90;99.90;;;;;;6186784;23;19933;-87
2022/02/18 19:44:57;;;;;;;;;;;5.90;99.90;;;;;;6185012;23;20303;-90
2022/02/18 19:47:47;;;;;;;;;;;5.80;99.90;;;;;;6185333;23;19924;-87
2022/02/18 19:50:47;;;;;;;;;;;;;;;;;;;;;
2022/02/18 19:53:47;;;;;;;;;;;5.60;99.90;;;;;;6186694;23;19928;-87
2022/02/18 19:56:36;;;;;;;;;;;5.60;99.90;;;;;;6188703;23;19921;-87
2022/02/18 19:59:28;;;;;;;;;;;5.60;99.90;;;;;;6187475;23;19924;-89
2022/02/18 20:02:40;;;;;;;;;;;5.60;99.90;;;;;;6141130;23;19934;-90
2022/02/18 20:05:29;;;;;;;;;;;5.70;99.90;;;;;;6185697;23;19998;-88
2022/02/18 20:08:37;;;;;;;;;;;5.70;99.90;;;;;;6211386;23;19939;-89
2022/02/18 20:11:55;;;;;;;;;;;5.60;99.90;;;;;;6079224;23;19933;-90
2022/02/18 20:14:54;;;;;;;;;;;5.60;99.90;;;;;;6077950;23;20266;-86
2022/02/18 20:17:45;;;;;;;;;;;5.60;99.90;;;;;;6094372;23;20000;-88
2022/02/18 20:20:46;;;;;;;;;;;5.60;99.90;;;;;;6073939;23;20189;-88
2022/02/18 20:23:34;;;;;;;;;;;5.50;99.90;;;;;;6076247;23;19924;-89
2022/02/18 20:26:44;;;;;;;;;;;5.40;99.90;;;;;;5996128;23;19978;-93
2022/02/18 20:29:37;;;;;;;;;;;5.40;99.90;;;;;;6086269;23;19932;-88
2022/02/18 20:32:24;;;;;;;;;;;5.30;99.90;;;;;;6135669;23;20299;-89
2022/02/18 20:35:39;;;;;;;;;;;;;;;;;;;;;
2022/02/18 20:38:36;;;;;;;;;;;5.30;99.90;;;;;;6132061;23;19921;-88
2022/02/18 20:42:22;;;;;;;;;;;5.30;99.90;;;;;;6137391;23;20197;-92
2022/02/18 20:45:10;;;;;;;;;;;5.30;99.90;;;;;;6193860;23;19928;-88
2022/02/18 20:48:27;;;;;;;;;;;5.30;99.90;;;;;;6200699;23;19984;-86
